Home > Products > Valid Products > TAF

000
FTUS44 KLUB 301134
TAFCDS
TAF
KCDS 301134Z 3012/3112 34004KT 6SM BR BKN008
     FM301500 13008KT P6SM BKN015
     FM301800 17011KT P6SM SCT030=



000
FTUS44 KLUB 301134
TAFLBB
TAF
KLBB 301134Z 3012/3112 VRB06KT P6SM FEW006 SCT020
     FM301300 15011KT P6SM BKN020
      TEMPO 3013/3016 4SM BR BKN008
     FM301800 16012KT P6SM SCT040=



000
FTUS44 KLUB 292149 AAA
TAFLBB
TAF AMD
KLBB 292149Z 2922/3018 18015G25KT P6SM BKN035
      TEMPO 2923/3003 VRB20G40KT TSRA BKN045CB
     FM300300 08013KT P6SM SCT010 BKN035=



000
FTUS44 KLUB 290215 AAA
TAFLBB
TAF AMD
KLBB 290215Z 2902/2924 11011KT P6SM FEW100
     FM291100 15011KT P6SM BKN015
     FM291700 17015KT P6SM BKN050=



000
FTUS44 KLUB 282324
TAFLBB
TAF
KLBB 282324Z 2900/2924 14011KT P6SM FEW120
     FM291100 15011KT P6SM BKN015
     FM291700 17015KT P6SM BKN050=



000
FTUS44 KLUB 282324
TAFCDS
TAF
KCDS 282324Z 2900/2924 12009KT P6SM FEW120
     FM291000 14011KT P6SM SCT010
     FM291500 14011KT P6SM BKN060=



000
FTUS44 KLUB 281720
TAFCDS
TAF
KCDS 281720Z 2818/2918 02008KT P6SM FEW250
     FM282100 12009KT P6SM FEW250
     FM290900 14011KT P6SM SCT010=



000
FTUS44 KLUB 281100
TAFCDS
TAF
KCDS 281100Z 2812/2912 02008KT P6SM FEW250
     FM282100 12009KT P6SM FEW250
     FM290900 14011KT P6SM SCT010=



000
FTUS44 KLUB 281100
TAFLBB
TAF
KLBB 281100Z 2812/2912 03008KT P6SM FEW250
     FM281700 17010KT P6SM FEW250
     FM291000 14012KT P6SM BKN035=



000
FTUS44 KLUB 280520
TAFLBB
TAF
KLBB 280520Z 2806/2906 03006KT P6SM SKC=



000
FTUS44 KLUB 272320
TAFLBB
TAF
KLBB 272320Z 2800/2824 30011G16KT P6SM SKC=



000
FTUS44 KLUB 272320
TAFCDS
TAF
KCDS 272320Z 2800/2824 31007KT P6SM SKC=



000
FTUS44 KLUB 271720
TAFLBB
TAF
KLBB 271720Z 2718/2818 27016G23KT P6SM SKC
     FM280100 31007KT P6SM SKC=



000
FTUS44 KLUB 271720
TAFCDS
TAF
KCDS 271720Z 2718/2818 24013G20KT P6SM SKC
     FM280100 32007KT P6SM SKC=



    US Dept of Commerce
    National Oceanic and Atmospheric Administration
    National Weather Service
    1325 East West Highway
    Silver Spring, MD 20910
    Page Author: NWS Internet Services Team
Disclaimer
Information Quality
Credits
Glossary
Privacy Policy
Freedom of Information Act (FOIA)
About Us
Career Opportunities